Dera Ismail Khan Weather



Dera Ismail Khan's Current Weather

Temprature 27.28o scattered clouds

scattered clouds

Rain: 0 %

Min Temprature27.28o
Max Temprature27.28o
Humidity30
Wind Speed9.34 m/h
Sun Rise06:21:10
Sun Set17:41:45
Current Time: 18-Oct-2019 16:27:48
Lat/Lon: 31.83, 70.91




Dera Ismail Khan's Geo Location



Dera Ismail Khan's Weather Forecast

Time Overall Temp Min Temp Max Temp Humidity Wind Speed Rain
18-Oct-2019 (Fri)
17:00:00 scattered clouds 24.100 24.100 27.280 30 9.34 m/h 0 %
20:00:00 broken clouds 24.470 24.470 26.850 29 5.85 m/h 0 %
23:00:00 broken clouds 23.280 23.280 24.868 46 0.88 m/h 0 %
19-Oct-2019 (Sat)
02:00:00 clear sky 23.420 23.420 24.218 41 3.02 m/h 0 %
05:00:00 clear sky 23.563 23.563 23.563 38 3.45 m/h 0 %
08:00:00 clear sky 25.371 25.371 25.371 33 3.48 m/h 0 %
11:00:00 clear sky 29.760 29.760 29.760 25 2.51 m/h 0 %
14:00:00 clear sky 31.746 31.746 31.746 21 1.3 m/h 0 %
17:00:00 clear sky 31.862 31.862 31.862 19 1.03 m/h 0 %
20:00:00 clear sky 28.388 28.388 28.388 26 1.25 m/h 0 %
23:00:00 clear sky 26.687 26.687 26.687 28 1.06 m/h 0 %
20-Oct-2019 (Sun)
02:00:00 clear sky 25.347 25.347 25.347 30 1.19 m/h 0 %
05:00:00 scattered clouds 23.754 23.754 23.754 34 0.6 m/h 0 %
08:00:00 overcast clouds 27.022 27.022 27.022 27 1.6 m/h 0 %
11:00:00 overcast clouds 30.070 30.070 30.070 22 0.76 m/h 0 %
14:00:00 overcast clouds 32.332 32.332 32.332 18 1.29 m/h 0 %
17:00:00 scattered clouds 32.538 32.538 32.538 17 2.06 m/h 0 %
20:00:00 clear sky 28.492 28.492 28.492 23 1.54 m/h 0 %
23:00:00 clear sky 26.817 26.817 26.817 25 1.73 m/h 0 %
21-Oct-2019 (Mon)
02:00:00 clear sky 24.540 24.540 24.540 30 0.85 m/h 0 %
05:00:00 clear sky 23.541 23.541 23.541 32 1.43 m/h 0 %
08:00:00 clear sky 25.809 25.809 25.809 28 1.94 m/h 0 %
11:00:00 clear sky 30.107 30.107 30.107 20 1.26 m/h 0 %
14:00:00 broken clouds 32.465 32.465 32.465 15 1.26 m/h 0 %
17:00:00 scattered clouds 32.294 32.294 32.294 15 1.04 m/h 0 %
20:00:00 clear sky 28.304 28.304 28.304 20 2.69 m/h 0 %
23:00:00 clear sky 25.800 25.800 25.800 24 1.21 m/h 0 %
22-Oct-2019 (Tue)
02:00:00 clear sky 23.986 23.986 23.986 28 0.71 m/h 0 %
05:00:00 clear sky 22.719 22.719 22.719 30 0.86 m/h 0 %
08:00:00 clear sky 26.632 26.632 26.632 24 0.15 m/h 0 %
11:00:00 clear sky 30.489 30.489 30.489 18 0.46 m/h 0 %
14:00:00 broken clouds 32.379 32.379 32.379 14 1.18 m/h 0 %
17:00:00 overcast clouds 32.202 32.202 32.202 13 2.39 m/h 0 %
20:00:00 few clouds 28.250 28.250 28.250 18 1.9 m/h 0 %
23:00:00 few clouds 25.849 25.849 25.849 22 1.05 m/h 0 %
23-Oct-2019 (Wed)
02:00:00 clear sky 24.476 24.476 24.476 23 1.21 m/h 0 %
05:00:00 clear sky 23.397 23.397 23.397 24 1.64 m/h 0 %
08:00:00 clear sky 25.589 25.589 25.589 22 1.92 m/h 0 %
11:00:00 clear sky 30.525 30.525 30.525 16 3.26 m/h 0 %
14:00:00 clear sky 32.299 32.299 32.299 14 2.79 m/h 0 %


Dera Ismail Khan's Tourist Spots

Historical Places in Dera Ismail Khan

Famous Cities (61)